createdAt,value
2023-11-03T11:54:24.855Z,82.50
2023-11-03T18:07:16.960Z,80.70
2023-11-03T18:09:21.997Z,80.22
2023-11-03T18:11:27.228Z,79.71
2023-11-03T18:13:32.845Z,79.27
2023-11-03T18:15:38.108Z,79.37
2023-11-03T18:17:41.443Z,79.16
2023-11-03T18:19:47.293Z,78.68
2023-11-03T18:21:52.174Z,78.37
2023-11-03T18:24:00.398Z,78.07
2023-11-03T18:26:06.153Z,78.24
2023-11-03T18:28:12.631Z,78.06
2023-11-03T18:30:17.807Z,77.84
2023-11-03T18:32:20.208Z,77.70
2023-11-03T18:34:25.417Z,77.88
2023-11-03T18:36:30.533Z,77.44
2023-11-03T18:38:35.554Z,77.54
2023-11-03T18:40:44.221Z,77.53
2023-11-03T18:42:47.040Z,77.54
2023-11-03T18:44:51.887Z,77.04
2023-11-03T18:46:56.778Z,77.27
2023-11-03T18:49:01.709Z,77.30
2023-11-03T18:51:25.761Z,77.00
2023-11-03T18:57:06.850Z,76.61
2023-11-03T18:58:48.030Z,76.97
2023-11-03T19:06:02.315Z,76.64
2023-11-03T19:07:34.460Z,76.76
2023-11-03T19:09:43.347Z,76.71
2023-11-03T19:11:51.328Z,76.24
2023-11-03T19:13:56.290Z,76.39
2023-11-03T19:16:02.002Z,76.04
2023-11-03T19:18:07.534Z,76.01
2023-11-03T19:20:14.228Z,75.69
2023-11-03T19:22:19.238Z,76.09
2023-11-03T19:24:24.689Z,75.83
2023-11-03T19:26:30.119Z,75.98
2023-11-03T19:28:37.615Z,75.71
2023-11-03T19:30:44.861Z,75.75
2023-11-03T19:32:51.587Z,75.21
2023-11-03T19:34:56.562Z,75.52
2023-11-03T19:37:01.470Z,75.27
2023-11-03T19:39:07.197Z,75.34
2023-11-03T19:41:12.860Z,75.27
2023-11-03T19:43:17.875Z,75.16
2023-11-03T19:45:25.584Z,74.82
2023-11-03T19:47:28.157Z,75.33
2023-11-03T19:49:34.780Z,75.08
2023-11-03T19:51:39.896Z,75.26
2023-11-03T19:53:44.965Z,74.97
2023-11-03T19:55:52.697Z,75.10
2023-11-03T19:57:57.739Z,74.81
2023-11-03T20:00:02.687Z,74.62
2023-11-03T20:02:12.354Z,74.73
2023-11-03T20:04:17.384Z,74.52
2023-11-03T20:06:23.158Z,74.70
2023-11-03T20:08:28.229Z,75.04
2023-11-03T20:10:33.680Z,74.63
2023-11-03T20:12:38.851Z,74.96
2023-11-03T20:14:43.804Z,74.76
2023-11-03T20:16:50.279Z,74.70
2023-11-03T20:18:57.989Z,74.71
2023-11-03T20:21:03.164Z,74.82
2023-11-03T20:23:08.164Z,74.82
2023-11-03T20:25:11.048Z,75.15
2023-11-03T20:27:16.705Z,74.94
2023-11-03T20:29:21.634Z,74.47
2023-11-03T20:31:26.484Z,74.81
2023-11-03T20:33:31.600Z,74.69
2023-11-03T20:35:36.494Z,74.68
2023-11-03T20:37:41.605Z,74.55
2023-11-03T20:39:46.584Z,74.51
2023-11-03T20:41:53.063Z,74.46
2023-11-03T20:43:58.028Z,74.96
2023-11-03T20:46:03.880Z,74.70
2023-11-03T20:48:09.184Z,74.59
2023-11-03T20:50:16.108Z,74.74
2023-11-03T20:52:23.617Z,74.26
2023-11-03T20:54:29.731Z,74.64
2023-11-03T20:56:34.663Z,74.43
2023-11-03T20:58:39.614Z,74.56
2023-11-03T21:00:45.363Z,74.43
2023-11-03T21:02:50.650Z,74.39
2023-11-03T21:04:56.467Z,74.35
2023-11-03T21:06:59.062Z,74.23
2023-11-03T21:09:07.805Z,74.58
2023-11-03T21:11:13.438Z,74.42
2023-11-03T21:13:18.470Z,74.16
2023-11-03T21:15:23.465Z,74.14
2023-11-03T21:17:25.756Z,74.57
2023-11-03T21:19:35.057Z,74.13
2023-11-03T21:21:40.985Z,74.18
2023-11-03T21:23:48.982Z,74.35
2023-11-03T21:25:58.341Z,74.03
2023-11-03T21:28:03.434Z,73.90
2023-11-03T21:30:09.491Z,74.05
2023-11-03T21:32:14.445Z,73.80
2023-11-03T21:34:19.638Z,73.70
2023-11-03T21:36:28.400Z,73.86
2023-11-03T21:38:33.332Z,74.01
2023-11-03T21:40:38.249Z,74.02
2023-11-03T21:42:47.562Z,73.97
2023-11-03T21:44:50.012Z,73.79
2023-11-03T21:46:55.313Z,74.03
2023-11-03T21:49:00.521Z,73.81
2023-11-03T21:51:07.204Z,73.63
2023-11-03T21:53:12.316Z,73.82
2023-11-03T21:55:14.896Z,73.78
2023-11-03T21:57:19.861Z,73.82
2023-11-03T21:59:27.469Z,73.83
2023-11-03T22:01:32.608Z,74.01
2023-11-03T22:03:37.930Z,73.53
2023-11-03T22:05:43.434Z,73.56
2023-11-03T22:07:49.632Z,73.92
2023-11-03T22:09:54.908Z,73.71
2023-11-03T22:12:00.040Z,73.75
2023-11-03T22:14:05.363Z,73.92
2023-11-03T22:16:13.943Z,73.62
2023-11-03T22:18:19.620Z,73.64
2023-11-03T22:20:24.902Z,73.81
2023-11-03T22:22:29.873Z,73.80
2023-11-03T22:24:35.795Z,73.54
2023-11-03T22:26:44.013Z,73.51
2023-11-03T22:28:50.624Z,73.36
2023-11-03T22:30:55.578Z,73.53
2023-11-03T22:33:03.292Z,73.39
2023-11-03T22:35:08.992Z,73.23
2023-11-03T22:37:11.462Z,73.46
2023-11-03T22:39:20.948Z,73.63
2023-11-03T22:41:26.556Z,73.22
2023-11-03T22:43:31.629Z,73.28
2023-11-03T22:45:36.688Z,73.38
2023-11-03T22:47:43.112Z,73.57
2023-11-03T22:49:50.789Z,73.09
2023-11-03T22:51:53.250Z,73.35
2023-11-03T22:53:58.226Z,73.04
2023-11-03T22:56:00.882Z,73.01
2023-11-03T22:58:05.865Z,73.11
2023-11-03T23:00:14.092Z,73.14
2023-11-03T23:02:19.358Z,73.26
2023-11-03T23:04:24.349Z,73.20
2023-11-03T23:06:32.114Z,72.94
2023-11-03T23:08:37.480Z,73.04
2023-11-03T23:10:41.501Z,73.16
2023-11-03T23:12:47.935Z,73.27
2023-11-03T23:14:52.928Z,73.07
2023-11-03T23:16:59.795Z,72.96
2023-11-03T23:19:05.725Z,72.98
2023-11-03T23:21:12.699Z,73.13
2023-11-03T23:23:20.860Z,73.07
2023-11-03T23:25:25.940Z,73.15
2023-11-03T23:27:28.270Z,73.01
2023-11-03T23:29:33.573Z,73.09
2023-11-03T23:31:36.382Z,72.93
2023-11-03T23:33:41.459Z,72.87
2023-11-03T23:35:43.902Z,73.55
2023-11-03T23:37:48.956Z,73.25
2023-11-03T23:39:56.700Z,72.93
2023-11-03T23:41:59.053Z,73.16
2023-11-03T23:44:06.088Z,72.81
2023-11-03T23:46:11.091Z,73.08
2023-11-03T23:48:13.723Z,72.95
2023-11-03T23:50:18.761Z,72.94
2023-11-03T23:52:23.679Z,72.81
2023-11-03T23:54:28.677Z,72.51
2023-11-03T23:56:38.472Z,72.68
2023-11-03T23:58:44.309Z,72.69
